createdAt,value
2023-01-11T00:01:04.978Z,-10.48
2023-01-11T00:03:33.187Z,-10.46
2023-01-11T00:06:00.989Z,-10.42
2023-01-11T00:08:28.811Z,-10.35
2023-01-11T00:10:56.293Z,-10.34
2023-01-11T00:13:23.989Z,-10.26
2023-01-11T00:15:51.662Z,-10.36
2023-01-11T00:18:19.247Z,-10.30
2023-01-11T00:20:46.909Z,-10.37
2023-01-11T00:23:14.431Z,-10.32
2023-01-11T00:25:41.913Z,-10.28
2023-01-11T00:28:09.686Z,-10.32
2023-01-11T00:30:37.480Z,-10.27
2023-01-11T00:33:04.988Z,-10.33
2023-01-11T00:35:33.011Z,-10.30
2023-01-11T00:38:03.664Z,-10.32
2023-01-11T00:40:31.366Z,-10.30
2023-01-11T00:43:17.252Z,-10.31
2023-01-11T00:46:19.922Z,-10.30
2023-01-11T00:48:47.378Z,-10.30
2023-01-11T00:51:15.365Z,-10.31
2023-01-11T00:53:43.530Z,-10.20
2023-01-11T00:56:10.995Z,-10.16
2023-01-11T00:58:41.832Z,-10.14
2023-01-11T01:01:12.185Z,-10.14
2023-01-11T01:03:39.794Z,-10.13
2023-01-11T01:06:07.288Z,-10.14
2023-01-11T01:08:35.679Z,-10.13
2023-01-11T01:11:03.274Z,-10.13
2023-01-11T01:13:51.847Z,-10.08
2023-01-11T01:16:20.207Z,-10.21
2023-01-11T01:18:47.965Z,-10.28
2023-01-11T01:21:15.763Z,-10.21
2023-01-11T01:23:43.571Z,-10.21
2023-01-11T01:26:11.047Z,-10.12
2023-01-11T01:28:38.567Z,-10.04
2023-01-11T01:31:06.093Z,-10.01
2023-01-11T01:33:39.248Z,-9.97
2023-01-11T01:36:08.468Z,-9.91
2023-01-11T01:38:36.064Z,-9.91
2023-01-11T01:41:04.651Z,-9.88
2023-01-11T01:43:53.937Z,-9.96
2023-01-11T01:46:26.491Z,-10.04
2023-01-11T01:48:59.418Z,-10.08
2023-01-11T01:51:50.034Z,-9.92
2023-01-11T01:54:25.551Z,-9.94
2023-01-11T01:56:59.580Z,-9.81
2023-01-11T01:59:30.406Z,-10.00
2023-01-11T02:01:58.268Z,-10.06
2023-01-11T02:04:32.326Z,-10.05
2023-01-11T02:07:03.900Z,-9.82
2023-01-11T02:09:40.864Z,-10.02
2023-01-11T02:12:09.230Z,-10.09
2023-01-11T02:14:39.520Z,-10.09
2023-01-11T02:17:26.927Z,-10.10
2023-01-11T02:20:06.655Z,-10.07
2023-01-11T02:22:39.792Z,-10.09
2023-01-11T02:25:07.361Z,-10.24
2023-01-11T02:28:34.539Z,-10.16
2023-01-11T02:31:41.446Z,-10.15
2023-01-11T02:34:45.483Z,-10.10
2023-01-11T02:37:28.513Z,-10.12
2023-01-11T02:39:59.136Z,-10.14
2023-01-11T02:42:57.854Z,-10.15
2023-01-11T02:45:43.418Z,-10.13
2023-01-11T02:48:31.579Z,-10.10
2023-01-11T02:51:07.805Z,-10.19
2023-01-11T02:53:49.771Z,-10.21
2023-01-11T02:56:25.527Z,-10.30
2023-01-11T02:58:55.936Z,-10.34
2023-01-11T03:01:25.602Z,-10.35
2023-01-11T03:03:53.940Z,-10.28
2023-01-11T03:06:26.381Z,-10.23
2023-01-11T03:09:30.403Z,-10.31
2023-01-11T03:12:52.296Z,-10.25
2023-01-11T03:15:31.839Z,-10.26
2023-01-11T03:18:11.584Z,-10.31
2023-01-11T03:20:44.648Z,-10.40
2023-01-11T03:23:56.632Z,-10.29
2023-01-11T03:26:33.347Z,-10.37
2023-01-11T03:29:23.543Z,-10.20
2023-01-11T03:32:04.199Z,-10.08
2023-01-11T03:34:34.655Z,-10.22
2023-01-11T03:37:09.936Z,-10.33
2023-01-11T03:39:46.380Z,-10.24
2023-01-11T03:42:22.959Z,-10.18
2023-01-11T03:44:53.516Z,-10.12
2023-01-11T03:47:26.037Z,-10.26
2023-01-11T03:50:02.311Z,-10.21
2023-01-11T03:52:38.684Z,-10.23
2023-01-11T03:55:10.835Z,-10.17
2023-01-11T03:57:44.034Z,-10.18
2023-01-11T04:00:12.019Z,-10.10
2023-01-11T04:02:41.645Z,-10.15
2023-01-11T04:05:10.637Z,-10.18
2023-01-11T04:07:38.423Z,-10.12
2023-01-11T04:10:06.827Z,-10.16
2023-01-11T04:12:34.362Z,-10.26
2023-01-11T04:15:05.819Z,-10.26
2023-01-11T04:17:33.453Z,-10.20
2023-01-11T04:20:01.460Z,-10.21
2023-01-11T04:22:34.118Z,-10.22
2023-01-11T04:25:02.596Z,-10.20
2023-01-11T04:27:30.294Z,-10.16
2023-01-11T04:29:57.975Z,-10.21
2023-01-11T04:32:25.436Z,-10.13
2023-01-11T04:34:52.974Z,-10.30
2023-01-11T04:37:20.499Z,-10.29
2023-01-11T04:39:48.030Z,-10.28
2023-01-11T04:42:22.474Z,-10.23
2023-01-11T04:44:51.128Z,-10.19
2023-01-11T04:47:21.235Z,-10.26
2023-01-11T04:49:48.985Z,-10.23
2023-01-11T04:52:18.475Z,-10.35
2023-01-11T04:54:47.345Z,-10.31
2023-01-11T04:57:17.095Z,-10.16
2023-01-11T04:59:48.970Z,-10.32
2023-01-11T05:02:17.124Z,-10.33
2023-01-11T05:04:44.958Z,-10.34
2023-01-11T05:07:12.948Z,-10.47
2023-01-11T05:09:41.934Z,-10.43
2023-01-11T05:12:09.419Z,-10.37
2023-01-11T05:14:38.002Z,-10.37
2023-01-11T05:17:05.738Z,-10.35
2023-01-11T05:19:33.222Z,-10.19
2023-01-11T05:22:00.828Z,-10.22
2023-01-11T05:24:28.332Z,-10.32
2023-01-11T05:26:56.133Z,-10.40
2023-01-11T05:29:24.071Z,-10.44
2023-01-11T05:31:51.551Z,-10.34
2023-01-11T05:34:19.296Z,-10.32
2023-01-11T05:36:46.973Z,-10.20
2023-01-11T05:39:15.190Z,-10.13
2023-01-11T05:41:42.715Z,-10.16
2023-01-11T05:44:32.287Z,-10.09
2023-01-11T05:47:00.892Z,-10.12
2023-01-11T05:49:28.445Z,-10.14
2023-01-11T05:51:56.087Z,-10.11
2023-01-11T05:54:26.570Z,-10.10
2023-01-11T05:56:57.504Z,-10.09
2023-01-11T05:59:27.012Z,-10.05
2023-01-11T06:01:54.630Z,-9.92
2023-01-11T06:04:25.460Z,-9.97
2023-01-11T06:06:53.394Z,-9.92
2023-01-11T06:09:20.908Z,-9.82
2023-01-11T06:11:50.679Z,-9.75
2023-01-11T06:14:18.105Z,-9.85
2023-01-11T06:16:45.622Z,-9.74
2023-01-11T06:19:17.515Z,-9.69
2023-01-11T06:21:45.038Z,-9.62
2023-01-11T06:24:12.546Z,-9.57
2023-01-11T06:26:42.186Z,-9.55
2023-01-11T06:29:11.717Z,-9.56
2023-01-11T06:31:41.764Z,-9.52
2023-01-11T06:34:11.723Z,-9.51
2023-01-11T06:36:39.846Z,-9.40
2023-01-11T06:39:07.381Z,-9.43
2023-01-11T06:41:35.224Z,-9.45
2023-01-11T06:44:02.961Z,-9.28
2023-01-11T06:46:30.561Z,-9.28
2023-01-11T06:48:58.275Z,-9.33
2023-01-11T06:51:28.180Z,-9.34
2023-01-11T06:53:56.029Z,-9.28
2023-01-11T06:56:23.947Z,-9.22
2023-01-11T06:58:52.683Z,-9.22
2023-01-11T07:01:21.296Z,-9.17
2023-01-11T07:03:48.927Z,-9.21
2023-01-11T07:06:19.562Z,-9.13
2023-01-11T07:08:50.336Z,-9.16
2023-01-11T07:11:18.117Z,-9.07
2023-01-11T07:13:45.894Z,-9.01
2023-01-11T07:16:13.349Z,-8.98
2023-01-11T07:18:40.903Z,-9.01
2023-01-11T07:21:08.517Z,-9.05
2023-01-11T07:23:39.300Z,-8.99
2023-01-11T07:26:06.881Z,-8.82
2023-01-11T07:28:37.170Z,-8.77
2023-01-11T07:31:05.910Z,-8.79
2023-01-11T07:33:33.436Z,-8.70
2023-01-11T07:36:01.258Z,-8.68
2023-01-11T07:38:29.635Z,-8.63
2023-01-11T07:40:57.147Z,-8.49
2023-01-11T07:43:24.630Z,-8.49
2023-01-11T07:45:53.978Z,-8.56
2023-01-11T07:48:27.430Z,-8.53
2023-01-11T07:50:55.400Z,-8.43
2023-01-11T07:53:25.813Z,-8.48
2023-01-11T07:55:56.149Z,-8.49
2023-01-11T07:58:23.751Z,-8.39
2023-01-11T08:00:53.921Z,-8.36
2023-01-11T08:03:22.706Z,-8.19
2023-01-11T08:05:54.343Z,-8.12
2023-01-11T08:08:23.164Z,-8.09
2023-01-11T08:11:09.324Z,-8.07
2023-01-11T08:13:55.614Z,-8.22
2023-01-11T08:16:23.589Z,-8.19
2023-01-11T08:18:52.737Z,-8.22
2023-01-11T08:21:21.526Z,-8.22
2023-01-11T08:23:49.190Z,-8.22
2023-01-11T08:26:18.215Z,-8.22
2023-01-11T08:28:48.832Z,-8.12
2023-01-11T08:31:17.070Z,-8.08
2023-01-11T08:33:45.796Z,-8.04
2023-01-11T08:36:13.583Z,-7.92
2023-01-11T08:38:41.278Z,-7.90
2023-01-11T08:41:10.947Z,-7.94
2023-01-11T08:43:39.146Z,-7.70
2023-01-11T08:46:07.463Z,-7.75
2023-01-11T08:48:35.180Z,-7.75
2023-01-11T08:51:02.774Z,-7.68
2023-01-11T08:53:30.314Z,-7.57
2023-01-11T08:55:57.839Z,-7.58
2023-01-11T08:58:25.654Z,-7.51
2023-01-11T09:00:53.308Z,-7.58
2023-01-11T09:03:20.906Z,-7.72
2023-01-11T09:05:48.494Z,-7.64
2023-01-11T09:08:15.922Z,-7.55
2023-01-11T09:10:43.423Z,-7.54
2023-01-11T09:13:10.942Z,-7.44
2023-01-11T09:15:38.626Z,-7.21
2023-01-11T09:18:06.255Z,-7.18
2023-01-11T09:20:34.325Z,-7.28
2023-01-11T09:23:01.923Z,-7.34
2023-01-11T09:25:29.497Z,-7.30
2023-01-11T09:27:56.960Z,-7.34
2023-01-11T09:30:25.217Z,-7.46
2023-01-11T09:32:53.053Z,-7.48
2023-01-11T09:35:22.705Z,-7.45
2023-01-11T09:37:51.724Z,-7.58
2023-01-11T09:40:31.058Z,-7.61
2023-01-11T09:43:05.069Z,-7.47
2023-01-11T09:45:34.200Z,-7.66
2023-01-11T09:48:15.519Z,-7.75
2023-01-11T09:50:47.890Z,-7.71
2023-01-11T09:53:32.645Z,-7.77
2023-01-11T09:56:05.322Z,-7.84
2023-01-11T09:58:54.448Z,-7.85
2023-01-11T10:01:47.097Z,-7.76
2023-01-11T10:04:42.123Z,-7.64
2023-01-11T10:07:12.566Z,-7.59
2023-01-11T10:18:38.800Z,-7.46
2023-01-11T10:19:33.426Z,-7.37
2023-01-11T10:21:56.065Z,-7.39
2023-01-11T10:24:27.338Z,-7.33
2023-01-11T10:27:00.059Z,-7.26
2023-01-11T10:30:04.118Z,-7.19
2023-01-11T10:32:58.218Z,-7.27
2023-01-11T10:35:42.160Z,-7.23
2023-01-11T10:38:36.677Z,-7.23
2023-01-11T10:41:19.871Z,-7.29
2023-01-11T10:43:53.922Z,-7.37
2023-01-11T10:46:26.941Z,-7.47
2023-01-11T10:49:30.277Z,-7.38
2023-01-11T10:52:12.524Z,-7.37
2023-01-11T10:54:46.796Z,-7.31
2023-01-11T10:57:24.259Z,-7.27
2023-01-11T10:59:59.611Z,-7.29
2023-01-11T11:02:58.382Z,-7.17
2023-01-11T11:05:34.993Z,-7.24
2023-01-11T11:08:26.673Z,-7.16
2023-01-11T11:11:01.139Z,-7.29
2023-01-11T11:13:53.394Z,-7.22
2023-01-11T11:16:24.190Z,-7.30
2023-01-11T11:18:55.922Z,-7.39
2023-01-11T11:21:30.931Z,-7.46
2023-01-11T11:24:21.071Z,-7.41
2023-01-11T11:26:55.387Z,-7.49
2023-01-11T11:29:29.378Z,-7.34
2023-01-11T11:32:01.055Z,-7.52
2023-01-11T11:34:31.238Z,-7.53
2023-01-11T11:37:00.723Z,-7.47
2023-01-11T11:39:29.587Z,-7.41
2023-01-11T11:42:06.690Z,-7.34
2023-01-11T11:44:35.409Z,-7.43
2023-01-11T11:47:22.543Z,-7.39
2023-01-11T11:49:50.194Z,-7.36
2023-01-11T11:52:20.651Z,-7.34
2023-01-11T11:54:57.130Z,-7.32
2023-01-11T11:57:29.980Z,-7.24
2023-01-11T12:00:06.137Z,-7.25
2023-01-11T12:02:37.048Z,-7.37
2023-01-11T12:05:10.538Z,-7.26
2023-01-11T12:07:54.311Z,-7.13
2023-01-11T12:10:25.641Z,-7.24
2023-01-11T12:13:02.728Z,-7.24
2023-01-11T12:15:32.701Z,-7.19
2023-01-11T12:18:37.317Z,-7.15
2023-01-11T12:21:21.577Z,-7.08
2023-01-11T12:24:08.500Z,-7.06
2023-01-11T12:26:46.131Z,-7.10
2023-01-11T12:29:29.044Z,-7.17
2023-01-11T12:32:13.883Z,-7.21
2023-01-11T12:34:51.940Z,-7.17
2023-01-11T12:37:28.494Z,-7.23
2023-01-11T12:40:13.513Z,-7.21
2023-01-11T12:43:05.924Z,-7.23
2023-01-11T12:45:54.806Z,-7.31
2023-01-11T12:48:32.357Z,-7.39
2023-01-11T12:51:14.607Z,-7.25
2023-01-11T12:54:14.272Z,-7.21
2023-01-11T12:57:09.622Z,-7.13
2023-01-11T13:00:13.508Z,-7.15
2023-01-11T13:02:46.933Z,-7.23
2023-01-11T13:05:26.230Z,-7.28
2023-01-11T13:08:22.094Z,-7.31
2023-01-11T13:11:05.056Z,-7.15
2023-01-11T13:14:00.334Z,-7.18
2023-01-11T13:16:38.728Z,-7.35
2023-01-11T13:19:15.228Z,-7.26
2023-01-11T13:21:53.100Z,-7.28
2023-01-11T13:24:27.405Z,-7.32
2023-01-11T13:27:02.760Z,-7.30
2023-01-11T13:29:50.404Z,-7.48
2023-01-11T13:32:28.349Z,-7.34
2023-01-11T13:35:31.965Z,-7.38
2023-01-11T13:38:17.439Z,-7.39
2023-01-11T13:40:53.024Z,-7.48
2023-01-11T13:43:55.477Z,-7.44
2023-01-11T13:46:43.880Z,-7.54
2023-01-11T13:49:12.347Z,-7.54
2023-01-11T13:52:03.703Z,-7.46
2023-01-11T13:55:09.015Z,-7.36
2023-01-11T13:58:01.309Z,-7.30
2023-01-11T14:00:39.227Z,-7.29
2023-01-11T14:03:32.765Z,-7.25
2023-01-11T14:06:42.322Z,-7.30
2023-01-11T14:09:40.944Z,-7.34
2023-01-11T14:12:51.056Z,-7.30
2023-01-11T14:15:26.607Z,-7.29
2023-01-11T14:18:37.011Z,-7.27
2023-01-11T14:21:52.514Z,-7.45
2023-01-11T14:24:22.751Z,-7.49
2023-01-11T14:27:13.404Z,-7.47
2023-01-11T14:30:04.634Z,-7.56
2023-01-11T14:32:47.659Z,-7.51
2023-01-11T14:35:27.140Z,-7.45
2023-01-11T14:38:35.537Z,-7.40
2023-01-11T14:41:15.061Z,-7.44
2023-01-11T14:44:23.021Z,-7.48
2023-01-11T14:47:12.905Z,-7.59
2023-01-11T14:50:13.533Z,-7.43
2023-01-11T14:52:44.054Z,-7.56
2023-01-11T14:55:22.874Z,-7.57
2023-01-11T14:57:56.329Z,-7.56
2023-01-11T15:00:23.749Z,-7.58
2023-01-11T15:03:18.499Z,-7.53
2023-01-11T15:06:10.394Z,-7.60
2023-01-11T15:08:46.016Z,-7.54
2023-01-11T15:11:34.368Z,-7.57
2023-01-11T15:14:22.075Z,-7.67
2023-01-11T15:17:11.556Z,-7.62
2023-01-11T15:19:42.324Z,-7.54
2023-01-11T15:22:30.168Z,-7.58
2023-01-11T15:25:19.342Z,-7.53
2023-01-11T15:27:48.432Z,-7.66
2023-01-11T15:30:31.353Z,-7.62
2023-01-11T15:33:17.155Z,-7.58
2023-01-11T15:35:56.646Z,-7.54
2023-01-11T15:38:49.671Z,-7.53
2023-01-11T15:41:38.529Z,-7.60
2023-01-11T15:44:33.706Z,-7.39
2023-01-11T15:47:38.674Z,-7.34
2023-01-11T15:50:09.006Z,-7.38
2023-01-11T15:53:04.214Z,-7.39
2023-01-11T15:56:22.054Z,-7.32
2023-01-11T15:59:04.652Z,-7.29
2023-01-11T16:01:47.429Z,-7.33
2023-01-11T16:04:29.082Z,-7.29
2023-01-11T16:07:22.689Z,-7.35
2023-01-11T16:10:22.510Z,-7.20
2023-01-11T16:12:50.162Z,-7.22
2023-01-11T16:15:36.113Z,-7.05
2023-01-11T16:18:45.607Z,-7.01
2023-01-11T16:21:21.952Z,-7.04
2023-01-11T16:23:49.869Z,-7.02
2023-01-11T16:26:19.800Z,-7.10
2023-01-11T16:29:18.124Z,-7.23
2023-01-11T16:31:59.382Z,-7.25
2023-01-11T16:34:30.798Z,-7.34
2023-01-11T16:36:58.467Z,-7.45
2023-01-11T16:39:29.603Z,-7.49
2023-01-11T16:42:06.003Z,-7.56
2023-01-11T16:44:41.321Z,-7.57
2023-01-11T16:47:12.166Z,-7.49
2023-01-11T16:49:41.388Z,-7.47
2023-01-11T16:52:27.046Z,-7.38
2023-01-11T16:55:00.917Z,-7.29
2023-01-11T16:57:37.720Z,-7.14
2023-01-11T17:00:18.831Z,-7.10
2023-01-11T17:02:49.044Z,-7.06
2023-01-11T17:05:22.910Z,-6.89
2023-01-11T17:07:53.941Z,-6.96
2023-01-11T17:10:29.425Z,-6.96
2023-01-11T17:13:35.721Z,-6.92
2023-01-11T17:16:09.962Z,-6.76
2023-01-11T17:18:42.677Z,-6.70
2023-01-11T17:21:26.742Z,-6.73
2023-01-11T17:24:00.513Z,-6.76
2023-01-11T17:26:32.249Z,-6.89
2023-01-11T17:29:00.684Z,-6.88
2023-01-11T17:31:32.346Z,-6.81
2023-01-11T17:34:05.673Z,-6.78
2023-01-11T17:36:33.486Z,-6.80
2023-01-11T17:39:03.913Z,-6.76
2023-01-11T17:41:50.464Z,-6.73
2023-01-11T17:44:39.608Z,-6.65
2023-01-11T17:47:11.099Z,-6.64
2023-01-11T17:49:39.282Z,-6.62
2023-01-11T17:52:23.605Z,-6.55
2023-01-11T17:55:02.301Z,-6.60
2023-01-11T17:57:31.855Z,-6.66
2023-01-11T18:00:23.864Z,-6.54
2023-01-11T18:02:53.528Z,-6.62
2023-01-11T18:05:29.600Z,-6.54
2023-01-11T18:07:59.463Z,-6.59
2023-01-11T18:10:37.328Z,-6.46
2023-01-11T18:13:05.089Z,-6.48
2023-01-11T18:15:37.120Z,-6.47
2023-01-11T18:18:44.930Z,-6.39
2023-01-11T18:21:40.408Z,-6.48
2023-01-11T18:24:21.599Z,-6.48
2023-01-11T18:26:50.275Z,-6.56
2023-01-11T18:29:46.773Z,-6.42
2023-01-11T18:32:15.472Z,-6.36
2023-01-11T18:34:46.047Z,-6.37
2023-01-11T18:37:13.845Z,-6.36
2023-01-11T18:39:42.793Z,-6.30
2023-01-11T18:42:16.503Z,-6.21
2023-01-11T18:44:46.858Z,-6.19
2023-01-11T18:47:14.315Z,-6.11
2023-01-11T18:49:41.924Z,-6.21
2023-01-11T18:52:10.460Z,-6.15
2023-01-11T18:54:38.201Z,-6.29
2023-01-11T18:57:05.762Z,-6.41
2023-01-11T18:59:35.574Z,-6.43
2023-01-11T19:02:28.207Z,-6.47
2023-01-11T19:04:57.201Z,-6.47
2023-01-11T19:07:26.569Z,-6.38
2023-01-11T19:09:59.421Z,-6.46
2023-01-11T19:12:27.623Z,-6.53
2023-01-11T19:14:55.209Z,-6.58
2023-01-11T19:17:23.869Z,-6.58
2023-01-11T19:19:51.657Z,-6.54
2023-01-11T19:22:23.273Z,-6.46
2023-01-11T19:24:54.380Z,-6.53
2023-01-11T19:27:23.042Z,-6.56
2023-01-11T19:29:51.701Z,-6.46
2023-01-11T19:32:23.744Z,-6.53
2023-01-11T19:34:52.444Z,-6.61
2023-01-11T19:37:20.826Z,-6.58
2023-01-11T19:39:48.347Z,-6.60
2023-01-11T19:42:15.956Z,-6.60
2023-01-11T19:44:43.880Z,-6.52
2023-01-11T19:47:15.828Z,-6.56
2023-01-11T19:49:44.962Z,-6.39
2023-01-11T19:52:19.057Z,-6.50
2023-01-11T19:54:46.947Z,-6.63
2023-01-11T19:57:20.802Z,-6.78
2023-01-11T19:59:49.808Z,-6.74
2023-01-11T20:02:20.577Z,-6.75
2023-01-11T20:04:48.776Z,-6.80
2023-01-11T20:07:16.388Z,-6.68
2023-01-11T20:09:43.897Z,-6.83
2023-01-11T20:12:15.894Z,-6.69
2023-01-11T20:14:44.693Z,-6.75
2023-01-11T20:17:13.333Z,-6.70
2023-01-11T20:19:40.877Z,-6.69
2023-01-11T20:22:08.396Z,-6.63
2023-01-11T20:24:35.910Z,-6.53
2023-01-11T20:27:03.763Z,-6.40
2023-01-11T20:29:31.285Z,-6.51
2023-01-11T20:32:18.670Z,-6.52
2023-01-11T20:34:46.397Z,-6.49
2023-01-11T20:37:15.147Z,-6.42
2023-01-11T20:39:43.154Z,-6.46
2023-01-11T20:42:12.678Z,-6.35
2023-01-11T20:44:40.347Z,-6.43
2023-01-11T20:47:08.090Z,-6.52
2023-01-11T20:49:35.569Z,-6.47
2023-01-11T20:52:03.317Z,-6.68
2023-01-11T20:54:30.910Z,-6.65
2023-01-11T20:57:05.618Z,-6.57
2023-01-11T20:59:33.265Z,-6.58
2023-01-11T21:02:00.838Z,-6.54
2023-01-11T21:04:28.374Z,-6.46
2023-01-11T21:06:55.852Z,-6.54
2023-01-11T21:09:23.377Z,-6.41
2023-01-11T21:11:54.250Z,-6.43
2023-01-11T21:14:22.879Z,-6.50
2023-01-11T21:16:50.643Z,-6.46
2023-01-11T21:19:18.219Z,-6.49
2023-01-11T21:21:45.700Z,-6.49
2023-01-11T21:24:15.590Z,-6.49
2023-01-11T21:26:45.320Z,-6.36
2023-01-11T21:29:13.307Z,-6.31
2023-01-11T21:31:42.101Z,-6.38
2023-01-11T21:34:12.394Z,-6.22
2023-01-11T21:36:40.522Z,-6.24
2023-01-11T21:39:09.400Z,-6.23
2023-01-11T21:41:55.227Z,-6.29
2023-01-11T21:44:32.159Z,-6.28
2023-01-11T21:47:05.626Z,-6.22
2023-01-11T21:49:35.586Z,-6.23
2023-01-11T21:52:03.303Z,-6.14
2023-01-11T21:54:30.923Z,-6.14
2023-01-11T21:56:58.608Z,-6.06
2023-01-11T21:59:26.386Z,-5.99
2023-01-11T22:01:54.074Z,-6.03
2023-01-11T22:04:21.822Z,-6.05
2023-01-11T22:06:55.267Z,-6.07
2023-01-11T22:09:25.875Z,-6.03
2023-01-11T22:11:53.725Z,-6.12
2023-01-11T22:14:21.689Z,-6.13
2023-01-11T22:16:49.935Z,-6.07
2023-01-11T22:19:17.652Z,-6.11
2023-01-11T22:21:45.715Z,-6.09
2023-01-11T22:24:13.351Z,-6.10
2023-01-11T22:26:41.315Z,-5.99
2023-01-11T22:29:13.069Z,-6.03
2023-01-11T22:32:04.480Z,-5.87
2023-01-11T22:34:34.794Z,-6.07
2023-01-11T22:37:02.580Z,-6.05
2023-01-11T22:39:30.386Z,-5.97
2023-01-11T22:41:58.188Z,-5.96
2023-01-11T22:44:25.836Z,-5.94
2023-01-11T22:46:53.470Z,-5.78
2023-01-11T22:49:21.077Z,-5.73
2023-01-11T22:51:51.245Z,-5.64
2023-01-11T22:54:18.885Z,-5.62
2023-01-11T22:56:47.803Z,-5.62
2023-01-11T22:59:15.253Z,-5.59
2023-01-11T23:01:43.266Z,-5.50
2023-01-11T23:04:14.250Z,-5.52
2023-01-11T23:06:43.100Z,-5.50
2023-01-11T23:09:16.710Z,-5.36
2023-01-11T23:12:03.576Z,-5.18
2023-01-11T23:14:33.127Z,-5.27
2023-01-11T23:17:09.069Z,-5.29
2023-01-11T23:19:39.346Z,-5.34
2023-01-11T23:22:08.373Z,-5.34
2023-01-11T23:24:37.342Z,-5.28
2023-01-11T23:27:05.656Z,-5.23
2023-01-11T23:29:33.249Z,-5.28
2023-01-11T23:32:00.797Z,-5.41
2023-01-11T23:34:28.481Z,-5.45
2023-01-11T23:36:55.924Z,-5.41
2023-01-11T23:39:26.225Z,-5.23
2023-01-11T23:42:12.145Z,-5.18
2023-01-11T23:44:39.667Z,-5.25
2023-01-11T23:47:22.116Z,-5.24
2023-01-11T23:49:54.286Z,-5.22
2023-01-11T23:52:27.857Z,-5.32
2023-01-11T23:54:55.497Z,-5.25
2023-01-11T23:57:24.893Z,-5.29
2023-01-11T23:59:52.675Z,-5.29
